Time;durP1;ratioP1;P1;durP2;ratioP2;P2;SDS_P1;SDS_P2;PMS_P1;PMS_P2;Temp;Humidity;BMP_temperature;BMP_pressure;BME280_temperature;BME280_humidity;BME280_pressure;Samples;Min_cycle;Max_cycle;Signal;HPM_P1;HPM_P2
2022/09/29 00:01:24;;;;;;;2.58;2.05;;;20.50;46.50;;;;;;5050829;28;20053;-11
2022/09/29 00:03:49;;;;;;;1.88;1.73;;;20.50;46.50;;;;;;5050782;28;20127;-11
2022/09/29 00:06:17;;;;;;;2.55;2.35;;;20.50;46.50;;;;;;5050936;28;20053;-11
2022/09/29 00:08:43;;;;;;;2.80;2.20;;;20.50;46.50;;;;;;5050713;28;20375;-11
2022/09/29 00:11:11;;;;;;;2.35;2.15;;;20.50;46.50;;;;;;5050946;28;20053;-11
2022/09/29 00:13:37;;;;;;;1.92;1.80;;;20.50;46.50;;;;;;5051094;28;20057;-11
2022/09/29 00:16:03;;;;;;;2.30;2.10;;;20.50;46.50;;;;;;5050868;28;20053;-11
2022/09/29 00:18:31;;;;;;;3.33;2.25;;;20.50;46.50;;;;;;5050503;28;20084;-12
2022/09/29 00:21:03;;;;;;;3.20;2.22;;;20.50;46.50;;;;;;5050425;28;20061;-11
2022/09/29 00:23:30;;;;;;;2.47;2.17;;;20.50;46.50;;;;;;5050820;28;20132;-11
2022/09/29 00:26:23;;;;;;;2.60;2.40;;;20.50;46.50;;;;;;5050228;28;20053;-11
2022/09/29 00:28:55;;;;;;;2.92;2.55;;;20.50;46.60;;;;;;5050723;28;20084;-12
2022/09/29 00:31:23;;;;;;;2.40;2.20;;;20.50;46.50;;;;;;5051102;28;20049;-11
2022/09/29 00:33:49;;;;;;;2.83;2.22;;;20.50;46.50;;;;;;5050061;28;20049;-11
2022/09/29 00:36:18;;;;;;;3.28;2.65;;;20.40;46.50;;;;;;5049863;28;20053;-11
2022/09/29 00:38:45;;;;;;;2.30;2.10;;;20.40;46.50;;;;;;5050283;28;20053;-12
2022/09/29 00:41:17;;;;;;;3.10;2.25;;;20.40;46.50;;;;;;5050320;28;20109;-11
2022/09/29 00:43:56;;;;;;;2.40;2.20;;;20.40;46.50;;;;;;5050880;28;20450;-11
2022/09/29 00:46:35;;;;;;;2.60;2.40;;;20.40;46.50;;;;;;5050937;28;20080;-11
2022/09/29 00:49:42;;;;;;;2.40;2.20;;;20.40;46.50;;;;;;5050788;28;20049;-11
2022/09/29 00:52:36;;;;;;;2.67;2.13;;;20.40;46.50;;;;;;5050250;28;20083;-11
2022/09/29 00:55:06;;;;;;;2.30;2.10;;;20.40;46.50;;;;;;5050093;28;20056;-11
2022/09/29 00:57:58;;;;;;;3.53;2.45;;;20.40;46.50;;;;;;5050260;28;20670;-12
2022/09/29 01:00:24;;;;;;;2.30;2.10;;;20.40;46.50;;;;;;5050140;28;20158;-11
2022/09/29 01:02:55;;;;;;;2.05;1.88;;;20.40;46.50;;;;;;5050105;28;20466;-11
2022/09/29 01:05:31;;;;;;;2.60;2.05;;;20.40;46.60;;;;;;5050213;28;20044;-11
2022/09/29 01:08:04;;;;;;;2.50;2.30;;;20.40;46.60;;;;;;5050325;28;20132;-12
2022/09/29 01:10:30;;;;;;;3.25;2.20;;;20.40;46.60;;;;;;5050092;28;20057;-11
2022/09/29 01:12:55;;;;;;;2.13;1.92;;;20.40;46.60;;;;;;5050425;28;20045;-11
2022/09/29 01:15:21;;;;;;;2.78;2.13;;;20.40;46.60;;;;;;5049892;28;20080;-11
2022/09/29 01:17:48;;;;;;;2.40;2.20;;;20.40;46.60;;;;;;5050188;28;20048;-12
2022/09/29 01:20:21;;;;;;;2.25;2.00;;;20.40;46.50;;;;;;5049953;28;20048;-11
2022/09/29 01:23:02;;;;;;;2.60;2.40;;;20.40;46.60;;;;;;5049847;28;20093;-11
2022/09/29 01:25:58;;;;;;;2.33;2.00;;;20.40;46.70;;;;;;5049966;28;20045;-11
2022/09/29 01:28:46;;;;;;;2.17;1.98;;;20.40;46.70;;;;;;5049278;28;20055;-11
2022/09/29 01:31:30;;;;;;;2.13;1.92;;;20.40;46.70;;;;;;5050012;28;20060;-11
2022/09/29 01:34:06;;;;;;;2.13;1.70;;;20.40;46.70;;;;;;5050122;28;20189;-11
2022/09/29 01:36:51;;;;;;;2.03;1.80;;;20.30;46.70;;;;;;5049198;28;20049;-11
2022/09/29 01:39:42;;;;;;;2.63;2.40;;;20.30;46.70;;;;;;5049729;28;20053;-11
2022/09/29 01:42:21;;;;;;;2.63;2.10;;;20.30;46.70;;;;;;5049569;28;20065;-11
2022/09/29 01:44:58;;;;;;;2.03;1.83;;;20.30;46.70;;;;;;5050127;28;20056;-12
2022/09/29 01:47:30;;;;;;;2.03;1.83;;;20.30;46.70;;;;;;5048883;28;20120;-11
2022/09/29 01:50:05;;;;;;;2.42;2.13;;;20.30;46.70;;;;;;5049620;28;20067;-11
2022/09/29 01:52:36;;;;;;;2.30;2.10;;;20.30;46.70;;;;;;5049380;28;20566;-11
2022/09/29 01:55:09;;;;;;;2.20;2.00;;;20.30;46.70;;;;;;5049353;28;20498;-11
2022/09/29 01:57:52;;;;;;;2.33;2.10;;;20.20;46.80;;;;;;5049683;28;20057;-11
2022/09/29 02:00:19;;;;;;;2.58;2.10;;;20.20;46.80;;;;;;5049363;28;20057;-11
2022/09/29 02:02:54;;;;;;;2.22;2.03;;;20.20;46.80;;;;;;5049294;28;20061;-11
2022/09/29 02:05:35;;;;;;;2.28;2.08;;;20.20;46.80;;;;;;5049468;28;20542;-12
2022/09/29 02:08:07;;;;;;;2.17;1.95;;;20.20;46.90;;;;;;5049102;28;20490;-11
2022/09/29 02:10:40;;;;;;;2.03;1.83;;;20.20;46.80;;;;;;5049488;28;20410;-11
2022/09/29 02:13:09;;;;;;;2.15;2.03;;;20.30;46.80;;;;;;5049224;28;20045;-11
2022/09/29 02:15:39;;;;;;;2.53;1.80;;;20.20;46.90;;;;;;5049074;28;20045;-11
2022/09/29 02:18:16;;;;;;;2.53;2.28;;;20.20;47.00;;;;;;5048942;28;20402;-12
2022/09/29 02:20:41;;;;;;;1.90;1.80;;;20.10;46.90;;;;;;5049257;28;20371;-11
2022/09/29 02:23:07;;;;;;;2.58;1.70;;;20.20;46.90;;;;;;5049352;28;20048;-12
2022/09/29 02:25:36;;;;;;;2.35;2.15;;;20.20;46.90;;;;;;5049520;28;20499;-11
2022/09/29 02:28:02;;;;;;;2.05;1.90;;;20.10;46.90;;;;;;5048868;28;20498;-12
2022/09/29 02:30:28;;;;;;;2.30;2.10;;;20.10;47.00;;;;;;5049125;28;20083;-11
2022/09/29 02:32:54;;;;;;;1.92;1.83;;;20.10;47.00;;;;;;5049239;28;20486;-12
2022/09/29 02:35:19;;;;;;;2.83;2.35;;;20.10;47.00;;;;;;5049294;28;20049;-11
2022/09/29 02:38:10;;;;;;;2.58;1.80;;;20.10;47.00;;;;;;5048665;28;20048;-12
2022/09/29 02:40:44;;;;;;;2.30;2.10;;;20.20;46.90;;;;;;5048995;28;20049;-11
2022/09/29 02:43:31;;;;;;;2.08;1.90;;;20.20;46.80;;;;;;5048790;28;20081;-11
2022/09/29 02:46:21;;;;;;;2.15;1.95;;;20.20;46.80;;;;;;5048492;28;20048;-12
2022/09/29 02:49:05;;;;;;;2.22;1.80;;;20.20;46.60;;;;;;5048486;28;20098;-11
2022/09/29 02:51:45;;;;;;;3.60;2.08;;;20.30;46.50;;;;;;5048561;28;20569;-11
2022/09/29 02:54:25;;;;;;;2.47;2.10;;;20.40;46.40;;;;;;5048479;28;20491;-11
2022/09/29 02:57:12;;;;;;;2.40;2.20;;;20.40;46.30;;;;;;5048386;28;20056;-9
2022/09/29 03:00:12;;;;;;;2.20;2.00;;;20.50;46.20;;;;;;5033971;28;20414;-11
2022/09/29 03:02:39;;;;;;;2.00;1.85;;;20.50;46.10;;;;;;5053995;28;20052;-11
2022/09/29 03:05:08;;;;;;;2.17;1.98;;;20.60;46.00;;;;;;5033659;28;20440;-11
2022/09/29 03:07:36;;;;;;;2.33;2.13;;;20.60;45.80;;;;;;5051283;28;20053;-11
2022/09/29 03:10:02;;;;;;;2.22;1.90;;;20.70;45.80;;;;;;5051784;28;20398;-12
2022/09/29 03:12:28;;;;;;;2.00;1.90;;;20.70;45.70;;;;;;5051756;28;20049;-11
2022/09/29 03:14:53;;;;;;;2.05;1.88;;;20.70;45.60;;;;;;5051368;28;20055;-11
2022/09/29 03:17:20;;;;;;;2.42;1.95;;;20.80;45.60;;;;;;5051422;28;20181;-11
2022/09/29 03:19:45;;;;;;;2.13;1.90;;;20.80;45.50;;;;;;5051379;28;20053;-11
2022/09/29 03:22:11;;;;;;;2.95;2.00;;;20.90;45.50;;;;;;5051381;28;20478;-11
2022/09/29 03:24:36;;;;;;;1.70;1.60;;;20.90;45.40;;;;;;5051364;28;20044;-11
2022/09/29 03:27:03;;;;;;;2.25;2.05;;;20.90;45.30;;;;;;5051356;28;20518;-11
2022/09/29 03:29:28;;;;;;;2.10;1.90;;;20.90;45.20;;;;;;5051666;28;20135;-11
2022/09/29 03:31:54;;;;;;;2.10;1.90;;;21.00;45.20;;;;;;5051250;28;20103;-11
2022/09/29 03:34:19;;;;;;;1.85;1.65;;;21.00;45.20;;;;;;5051207;28;20049;-11
2022/09/29 03:36:45;;;;;;;2.20;2.00;;;21.00;45.10;;;;;;5051095;28;20136;-11
2022/09/29 03:39:11;;;;;;;2.42;2.20;;;21.00;45.10;;;;;;5051570;28;20049;-11
2022/09/29 03:41:36;;;;;;;2.20;1.98;;;21.00;45.10;;;;;;5050979;28;20081;-11
2022/09/29 03:44:02;;;;;;;1.77;1.67;;;21.00;45.10;;;;;;5051133;28;20056;-11
2022/09/29 03:46:27;;;;;;;2.40;2.10;;;21.00;45.10;;;;;;5051660;28;20049;-11
2022/09/29 03:48:53;;;;;;;2.13;1.50;;;21.00;45.10;;;;;;5051594;28;20101;-11
2022/09/29 03:51:20;;;;;;;2.50;2.00;;;21.00;45.10;;;;;;5050871;28;20060;-11
2022/09/29 03:53:47;;;;;;;2.10;1.90;;;21.00;45.20;;;;;;5050950;28;20504;-11
2022/09/29 03:56:13;;;;;;;2.00;1.90;;;21.00;45.10;;;;;;5050847;28;20104;-11
2022/09/29 03:58:39;;;;;;;2.13;1.92;;;21.00;45.20;;;;;;5050700;28;20088;-11
2022/09/29 04:01:05;;;;;;;2.38;2.10;;;21.00;45.20;;;;;;5050919;28;20558;-11
2022/09/29 04:03:31;;;;;;;2.00;1.88;;;21.00;45.20;;;;;;5050501;28;20562;-11
2022/09/29 04:05:56;;;;;;;1.80;1.70;;;21.00;45.20;;;;;;5050117;28;20061;-12
2022/09/29 04:08:22;;;;;;;1.80;1.70;;;21.00;45.20;;;;;;5050265;28;20884;-11
2022/09/29 04:10:48;;;;;;;2.05;1.85;;;21.00;45.20;;;;;;5050625;28;20063;-11
2022/09/29 04:13:14;;;;;;;2.17;1.83;;;20.90;45.20;;;;;;5050731;28;20067;-11
2022/09/29 04:15:39;;;;;;;1.50;1.35;;;20.90;45.30;;;;;;5050579;28;20049;-11
2022/09/29 04:18:05;;;;;;;1.80;1.70;;;20.90;45.30;;;;;;5050527;28;20413;-12
2022/09/29 04:20:32;;;;;;;1.65;1.55;;;20.90;45.30;;;;;;5050496;28;20056;-11
2022/09/29 04:22:59;;;;;;;2.13;1.85;;;20.90;45.40;;;;;;5050966;28;20061;-11
2022/09/29 04:25:24;;;;;;;1.80;1.70;;;20.90;45.30;;;;;;5050879;28;20045;-11
2022/09/29 04:27:50;;;;;;;1.85;1.65;;;20.80;45.30;;;;;;5050572;28;20052;-12
2022/09/29 04:30:17;;;;;;;2.33;2.00;;;20.80;45.40;;;;;;5050532;28;20057;-11
2022/09/29 04:32:42;;;;;;;2.00;1.90;;;20.80;45.50;;;;;;5050547;28;20122;-11
2022/09/29 04:35:09;;;;;;;2.15;1.85;;;20.70;45.50;;;;;;5050927;28;20555;-11
2022/09/29 04:37:34;;;;;;;2.55;1.88;;;20.70;45.70;;;;;;5050780;28;20057;-11
2022/09/29 04:40:02;;;;;;;2.13;1.83;;;20.60;45.80;;;;;;5050356;28;20045;-11
2022/09/29 04:42:28;;;;;;;1.85;1.75;;;20.60;45.80;;;;;;5050374;28;20143;-11
2022/09/29 04:44:53;;;;;;;1.83;1.73;;;20.60;45.80;;;;;;5050870;28;20099;-11
2022/09/29 04:47:19;;;;;;;2.22;1.92;;;20.60;45.90;;;;;;5032989;28;20505;-11
2022/09/29 04:49:44;;;;;;;2.75;2.00;;;20.50;45.90;;;;;;5050558;28;20052;-12
2022/09/29 04:52:11;;;;;;;2.20;2.00;;;20.50;45.90;;;;;;5050533;28;20057;-11
2022/09/29 04:54:37;;;;;;;2.00;1.80;;;20.60;45.90;;;;;;5050850;28;20049;-11
2022/09/29 04:57:03;;;;;;;2.08;1.88;;;20.60;45.80;;;;;;5050109;28;20413;-11
2022/09/29 04:59:28;;;;;;;2.30;1.85;;;20.60;45.70;;;;;;5050065;28;20053;-11
2022/09/29 05:01:54;;;;;;;1.98;1.52;;;20.70;45.70;;;;;;5050755;28;20053;-11
2022/09/29 05:04:20;;;;;;;2.25;1.98;;;20.70;45.60;;;;;;5050461;28;20406;-11
2022/09/29 05:06:45;;;;;;;2.17;1.92;;;20.70;45.60;;;;;;5050175;28;20132;-11
2022/09/29 05:09:11;;;;;;;2.30;2.10;;;20.70;45.60;;;;;;5050107;28;20053;-11
2022/09/29 05:11:37;;;;;;;2.33;1.95;;;20.70;45.50;;;;;;5050065;28;20185;-11
2022/09/29 05:14:03;;;;;;;1.70;1.60;;;20.70;45.50;;;;;;5050596;28;20140;-11
2022/09/29 05:16:29;;;;;;;1.98;1.77;;;20.70;45.50;;;;;;5031890;28;20508;-11
2022/09/29 05:18:57;;;;;;;1.92;1.83;;;20.80;45.50;;;;;;5050213;28;20051;-12
2022/09/29 05:21:24;;;;;;;2.28;2.08;;;20.80;45.40;;;;;;5048988;28;20049;-11
2022/09/29 05:23:50;;;;;;;2.00;1.80;;;20.80;45.40;;;;;;5050139;28;20048;-11
2022/09/29 05:26:17;;;;;;;2.85;2.00;;;20.80;45.40;;;;;;5049847;28;20049;-11
2022/09/29 05:28:46;;;;;;;2.72;2.15;;;20.80;45.30;;;;;;5049680;28;20056;-11
2022/09/29 05:31:12;;;;;;;2.80;1.80;;;20.80;45.30;;;;;;5049918;28;20110;-11
2022/09/29 05:33:38;;;;;;;2.60;1.98;;;20.80;45.20;;;;;;5049355;28;20105;-11
2022/09/29 05:36:08;;;;;;;1.75;1.63;;;20.90;45.30;;;;;;5049324;28;20053;-11
2022/09/29 05:38:35;;;;;;;1.70;1.60;;;20.90;45.20;;;;;;5049291;28;20053;-11
2022/09/29 05:41:06;;;;;;;2.15;1.73;;;20.90;45.10;;;;;;5049230;28;20156;-11
2022/09/29 05:43:31;;;;;;;1.80;1.37;;;21.00;45.50;;;;;;5049368;28;20088;-11
2022/09/29 05:46:02;;;;;;;3.53;2.08;;;21.00;45.10;;;;;;5049724;28;20509;-11
2022/09/29 05:48:31;;;;;;;4.82;1.70;;;21.00;45.10;;;;;;5049165;28;20136;-11
2022/09/29 05:51:06;;;;;;;5.45;2.25;;;21.00;45.70;;;;;;5049174;28;20144;-11
2022/09/29 05:53:32;;;;;;;4.30;2.28;;;21.10;47.30;;;;;;5049420;28;20060;-11
2022/09/29 05:55:57;;;;;;;3.63;2.40;;;21.20;48.00;;;;;;5049083;28;20057;-11
2022/09/29 05:58:23;;;;;;;3.65;2.00;;;21.20;47.60;;;;;;5049343;28;20052;-11
2022/09/29 06:00:49;;;;;;;4.65;2.20;;;21.30;47.80;;;;;;5049574;28;20490;-11
2022/09/29 06:03:14;;;;;;;2.88;2.10;;;21.30;47.60;;;;;;5049606;28;20510;-11
2022/09/29 06:05:40;;;;;;;6.65;2.28;;;21.30;47.40;;;;;;5049178;28;20049;-11
2022/09/29 06:08:06;;;;;;;3.63;2.38;;;21.30;47.20;;;;;;5049148;28;20053;-11
2022/09/29 06:10:32;;;;;;;4.53;2.15;;;21.30;47.10;;;;;;5049021;28;20057;-11
2022/09/29 06:12:57;;;;;;;6.50;2.67;;;21.30;46.90;;;;;;5049236;28;20057;-11
2022/09/29 06:15:23;;;;;;;5.60;2.03;;;21.40;46.70;;;;;;5048661;28;20520;-11
2022/09/29 06:17:56;;;;;;;8.00;2.65;;;21.40;46.40;;;;;;5048629;28;20052;-11
2022/09/29 06:20:22;;;;;;;3.22;2.40;;;21.40;46.30;;;;;;5049156;28;20537;-11
2022/09/29 06:22:50;;;;;;;4.70;2.08;;;21.50;46.20;;;;;;5048863;28;20510;-11
2022/09/29 06:25:16;;;;;;;4.28;2.13;;;21.40;46.10;;;;;;5049472;28;20045;-11
2022/09/29 06:27:41;;;;;;;2.75;2.45;;;21.40;46.20;;;;;;5049098;28;20052;-11
2022/09/29 06:30:07;;;;;;;7.15;2.70;;;21.40;46.20;;;;;;5047335;28;20084;-12
2022/09/29 06:32:34;;;;;;;8.05;2.92;;;21.30;46.20;;;;;;5049036;28;20095;-12
2022/09/29 06:37:45;;;;;;;3.42;1.98;;;21.30;46.10;;;;;;5051980;28;20064;-11
2022/09/29 06:40:12;;;;;;;5.05;2.60;;;21.30;46.00;;;;;;5051572;28;20101;-11
2022/09/29 06:42:38;;;;;;;2.85;2.20;;;21.40;45.90;;;;;;5051713;28;20049;-11
2022/09/29 06:45:04;;;;;;;5.95;2.60;;;21.40;45.90;;;;;;5051602;28;20056;-11
2022/09/29 06:47:30;;;;;;;5.05;2.40;;;21.40;45.90;;;;;;5052050;28;20049;-11
2022/09/29 06:49:57;;;;;;;4.18;3.17;;;21.40;45.90;;;;;;5051649;28;20056;-11
2022/09/29 06:52:22;;;;;;;5.03;2.50;;;21.40;45.90;;;;;;5051891;28;20134;-11
2022/09/29 06:54:48;;;;;;;7.05;2.45;;;21.40;45.90;;;;;;5051496;28;20501;-11
2022/09/29 06:57:13;;;;;;;5.03;2.00;;;21.40;45.90;;;;;;5051905;28;20135;-10
2022/09/29 06:59:39;;;;;;;6.93;2.63;;;21.40;45.80;;;;;;5051509;28;20132;-11
2022/09/29 07:02:05;;;;;;;7.43;2.10;;;21.40;45.80;;;;;;5051393;28;20075;-11
2022/09/29 07:04:30;;;;;;;4.97;2.22;;;21.40;45.70;;;;;;5051629;28;20045;-11
2022/09/29 07:06:56;;;;;;;5.47;2.17;;;21.40;45.80;;;;;;5051535;28;20132;-11
2022/09/29 07:09:22;;;;;;;6.40;2.50;;;21.40;45.80;;;;;;5051167;28;20486;-12
2022/09/29 07:11:50;;;;;;;3.75;2.00;;;21.40;45.80;;;;;;5051348;28;20060;-12
2022/09/29 07:14:17;;;;;;;3.95;2.10;;;21.30;45.80;;;;;;5051241;28;20052;-10
2022/09/29 07:16:43;;;;;;;6.57;2.35;;;21.30;45.80;;;;;;5051105;28;20048;-11
2022/09/29 07:19:10;;;;;;;5.97;2.20;;;21.30;45.80;;;;;;5033662;28;20057;-12
2022/09/29 07:21:35;;;;;;;4.38;2.03;;;21.30;45.80;;;;;;5051082;28;20049;-12
2022/09/29 07:24:01;;;;;;;5.30;2.40;;;21.30;45.70;;;;;;5051221;28;20052;-12
2022/09/29 07:26:28;;;;;;;4.07;2.20;;;21.30;45.70;;;;;;5051277;28;20044;-12
2022/09/29 07:28:55;;;;;;;4.53;2.22;;;21.40;45.70;;;;;;5050856;28;20064;-10
2022/09/29 07:31:22;;;;;;;6.43;2.53;;;21.40;45.70;;;;;;5033133;28;20101;-10
2022/09/29 07:33:50;;;;;;;7.40;2.20;;;21.40;45.70;;;;;;5031607;28;20419;-11
2022/09/29 07:36:20;;;;;;;3.33;2.25;;;21.40;45.70;;;;;;5051249;28;20482;-11
2022/09/29 07:38:50;;;;;;;4.80;2.35;;;21.40;45.70;;;;;;5051019;28;20058;-11
2022/09/29 07:41:18;;;;;;;3.60;2.13;;;21.30;45.70;;;;;;5050933;28;20135;-12
2022/09/29 07:43:44;;;;;;;6.07;2.58;;;21.30;45.70;;;;;;5050496;28;20057;-12
2022/09/29 07:46:10;;;;;;;5.15;2.72;;;21.30;45.70;;;;;;5050574;28;20379;-11
2022/09/29 07:48:37;;;;;;;2.78;2.10;;;21.30;45.80;;;;;;5050692;28;20060;-11
2022/09/29 07:51:10;;;;;;;6.70;2.28;;;21.30;45.80;;;;;;5051036;28;20482;-11
2022/09/29 07:53:36;;;;;;;3.63;2.30;;;21.30;45.80;;;;;;5050562;28;20339;-11
2022/09/29 07:56:17;;;;;;;2.92;2.28;;;21.30;45.70;;;;;;5050488;28;20147;-11
2022/09/29 07:58:44;;;;;;;6.35;2.33;;;21.30;45.70;;;;;;5051044;28;20147;-13
2022/09/29 08:01:12;;;;;;;3.50;2.25;;;21.30;45.70;;;;;;5048691;28;20136;-11
2022/09/29 08:03:39;;;;;;;5.07;2.30;;;21.30;45.70;;;;;;5050408;28;20076;-11
2022/09/29 08:06:06;;;;;;;6.03;2.10;;;21.30;45.70;;;;;;5030347;28;20057;-11
2022/09/29 08:08:35;;;;;;;3.92;2.42;;;21.30;45.70;;;;;;5050395;28;20092;-11
2022/09/29 08:11:03;;;;;;;7.90;2.40;;;21.30;45.70;;;;;;5050278;28;20383;-11
2022/09/29 08:13:31;;;;;;;5.50;2.50;;;21.30;45.80;;;;;;5049944;28;20053;-11
2022/09/29 08:15:58;;;;;;;5.05;2.40;;;21.30;45.80;;;;;;5050211;28;20045;-11
2022/09/29 08:18:24;;;;;;;4.32;2.50;;;21.30;45.80;;;;;;5050802;28;20502;-11
2022/09/29 08:20:52;;;;;;;4.05;2.20;;;21.30;46.30;;;;;;5050158;28;20079;-11
2022/09/29 08:23:18;;;;;;;4.40;2.22;;;21.30;45.80;;;;;;5048866;28;20060;-11
2022/09/29 08:25:44;;;;;;;4.40;2.05;;;21.20;45.80;;;;;;5050684;28;20390;-11
2022/09/29 08:28:10;;;;;;;3.08;2.45;;;21.30;45.90;;;;;;5050550;28;20051;-11
2022/09/29 08:30:35;;;;;;;6.70;2.47;;;21.30;45.90;;;;;;5050294;28;20129;-12
2022/09/29 08:33:02;;;;;;;3.30;2.30;;;21.20;45.80;;;;;;5050252;28;20459;-12
2022/09/29 08:35:28;;;;;;;3.45;2.40;;;21.30;45.90;;;;;;5049961;28;20045;-12
2022/09/29 08:37:54;;;;;;;3.90;2.10;;;21.30;45.80;;;;;;5049985;28;20109;-12
2022/09/29 08:40:20;;;;;;;4.88;2.75;;;21.30;45.80;;;;;;5050068;28;20062;-12
2022/09/29 08:43:04;;;;;;;4.00;2.45;;;21.30;45.90;;;;;;5050058;28;20527;-12
2022/09/29 08:45:40;;;;;;;4.65;2.55;;;21.20;45.90;;;;;;5049891;28;20094;-12
2022/09/29 08:48:17;;;;;;;4.07;2.22;;;21.30;45.90;;;;;;5049139;28;20510;-12
2022/09/29 08:50:56;;;;;;;2.65;2.35;;;21.20;45.80;;;;;;5031587;28;20049;-13
2022/09/29 08:53:24;;;;;;;4.53;2.47;;;21.30;45.80;;;;;;5030706;28;20053;-11
2022/09/29 08:55:57;;;;;;;3.38;2.25;;;21.30;45.80;;;;;;5046743;28;20049;-12
2022/09/29 08:58:23;;;;;;;3.47;2.47;;;21.30;45.80;;;;;;5049075;28;20053;-11
2022/09/29 09:01:20;;;;;;;3.50;2.42;;;21.30;45.80;;;;;;5026419;28;20446;-12
2022/09/29 09:04:08;;;;;;;2.75;2.05;;;21.30;45.80;;;;;;5049933;28;20060;-12
2022/09/29 09:06:53;;;;;;;4.28;2.22;;;21.30;45.80;;;;;;5046541;28;20388;-10
2022/09/29 09:09:47;;;;;;;3.80;2.08;;;21.30;45.70;;;;;;5049511;28;20049;-11
2022/09/29 09:12:43;;;;;;;4.78;2.20;;;21.30;45.70;;;;;;5049508;28;20064;-10
2022/09/29 09:15:37;;;;;;;2.58;2.08;;;21.40;45.70;;;;;;5051196;28;20057;-10
2022/09/29 09:18:21;;;;;;;3.35;2.42;;;21.30;45.70;;;;;;5049665;28;20060;-11
2022/09/29 09:21:08;;;;;;;4.00;2.20;;;21.30;45.70;;;;;;5049288;28;20061;-12
2022/09/29 09:23:52;;;;;;;3.17;2.13;;;21.40;45.80;;;;;;5048936;28;20171;-10
2022/09/29 09:26:38;;;;;;;2.53;2.00;;;21.40;45.70;;;;;;5049608;28;20053;-11
2022/09/29 09:29:20;;;;;;;2.42;2.00;;;21.40;45.70;;;;;;5047462;28;20053;-12
2022/09/29 09:31:59;;;;;;;8.63;2.75;;;21.40;45.70;;;;;;5049272;28;20084;-12
2022/09/29 09:34:52;;;;;;;3.22;2.30;;;21.40;45.70;;;;;;5049539;28;20156;-11
2022/09/29 09:37:40;;;;;;;3.35;2.00;;;21.40;45.70;;;;;;5049545;28;20057;-12
2022/09/29 09:40:15;;;;;;;5.90;2.25;;;21.40;45.80;;;;;;5049756;28;20045;-12
2022/09/29 09:42:45;;;;;;;3.22;2.58;;;21.40;45.80;;;;;;5049447;28;20136;-12
2022/09/29 09:45:40;;;;;;;2.92;2.33;;;21.40;45.80;;;;;;5049511;28;20148;-12
2022/09/29 09:48:14;;;;;;;4.85;2.65;;;21.40;45.70;;;;;;5056671;28;20065;-11
2022/09/29 09:50:42;;;;;;;4.55;2.50;;;21.40;45.70;;;;;;5049363;28;20093;-11
2022/09/29 09:53:28;;;;;;;2.97;2.13;;;21.40;45.70;;;;;;5049577;28;20065;-11
2022/09/29 09:56:22;;;;;;;4.88;2.58;;;21.40;45.60;;;;;;5049222;28;20197;-11
2022/09/29 09:59:30;;;;;;;4.28;2.35;;;21.40;45.60;;;;;;5047728;28;20048;-11
2022/09/29 10:01:57;;;;;;;3.60;2.28;;;21.40;45.60;;;;;;5046971;28;20139;-12
2022/09/29 10:04:24;;;;;;;4.28;2.67;;;21.40;45.60;;;;;;5049335;28;20068;-11
2022/09/29 10:06:51;;;;;;;5.03;2.35;;;21.40;45.60;;;;;;5049499;28;20101;-12
2022/09/29 10:09:18;;;;;;;3.90;2.88;;;21.40;45.60;;;;;;5052014;28;20083;-11
2022/09/29 10:11:44;;;;;;;4.13;2.47;;;21.40;45.50;;;;;;5052144;28;20057;-11
2022/09/29 10:14:25;;;;;;;3.83;2.65;;;21.40;45.50;;;;;;5051963;28;20512;-11
2022/09/29 10:16:54;;;;;;;;;;;21.50;45.50;;;;;;5052501;28;20049;-11
2022/09/29 10:19:22;;;;;;;5.00;2.50;;;21.50;45.40;;;;;;5051718;28;20396;-11
2022/09/29 10:21:48;;;;;;;4.63;2.28;;;21.40;45.40;;;;;;5052580;28;20051;-11
2022/09/29 10:24:29;;;;;;;7.32;2.53;;;21.40;45.40;;;;;;5052082;28;20478;-11
2022/09/29 10:27:01;;;;;;;4.28;2.90;;;21.50;45.40;;;;;;5051989;28;20049;-11
2022/09/29 10:29:39;;;;;;;3.03;2.40;;;21.50;45.50;;;;;;5051735;28;20140;-11
2022/09/29 10:32:20;;;;;;;5.28;3.03;;;21.40;45.50;;;;;;5051854;28;20056;-11
2022/09/29 10:34:53;;;;;;;3.20;2.47;;;21.40;45.40;;;;;;5052123;28;20083;-11
2022/09/29 10:37:22;;;;;;;3.63;2.50;;;21.40;45.50;;;;;;5051958;28;20056;-11
2022/09/29 10:39:48;;;;;;;4.53;2.45;;;21.40;45.50;;;;;;5052145;28;20059;-11
2022/09/29 10:42:24;;;;;;;3.28;2.50;;;21.40;45.50;;;;;;5052213;28;20087;-11
2022/09/29 10:45:01;;;;;;;8.57;3.10;;;21.40;45.50;;;;;;5051798;28;20072;-11
2022/09/29 10:47:27;;;;;;;3.95;2.28;;;21.40;46.10;;;;;;5051434;28;20087;-11
2022/09/29 10:50:18;;;;;;;3.70;2.60;;;21.40;45.60;;;;;;5051867;28;20110;-12
2022/09/29 10:52:53;;;;;;;4.80;2.50;;;21.40;45.60;;;;;;5051899;28;20456;-11
2022/09/29 10:55:24;;;;;;;4.40;2.53;;;21.40;45.60;;;;;;5051627;28;20068;-12
2022/09/29 10:57:51;;;;;;;;;;;21.40;45.70;;;;;;5051988;28;20057;-12
2022/09/29 11:00:28;;;;;;;4.53;2.22;;;21.40;45.70;;;;;;5051406;28;19952;-12
2022/09/29 11:03:03;;;;;;;6.40;3.05;;;21.40;45.70;;;;;;5051788;28;20131;-11
2022/09/29 11:05:29;;;;;;;4.53;2.80;;;21.30;45.80;;;;;;5051862;28;20057;-12
2022/09/29 11:07:55;;;;;;;3.05;2.33;;;21.30;45.80;;;;;;5051495;28;20451;-12
2022/09/29 11:10:31;;;;;;;5.00;2.53;;;21.30;45.80;;;;;;5051474;28;20049;-12
2022/09/29 11:12:58;;;;;;;4.57;2.70;;;21.30;45.80;;;;;;5051637;28;20045;-12
2022/09/29 11:15:26;;;;;;;5.35;2.88;;;21.30;45.80;;;;;;5051875;28;20045;-12
2022/09/29 11:17:52;;;;;;;3.55;2.70;;;21.30;45.80;;;;;;5050994;28;20048;-12
2022/09/29 11:20:20;;;;;;;3.08;2.70;;;21.30;45.90;;;;;;5050537;28;20141;-12
2022/09/29 11:23:14;;;;;;;3.42;2.55;;;21.30;45.90;;;;;;5051154;28;20414;-11
2022/09/29 11:26:04;;;;;;;5.53;2.92;;;21.30;45.90;;;;;;5051252;28;20136;-13
2022/09/29 11:29:04;;;;;;;4.40;2.35;;;21.30;45.80;;;;;;5050888;28;20455;-12
2022/09/29 11:31:48;;;;;;;3.50;2.60;;;21.30;45.90;;;;;;5058628;28;20053;-12
2022/09/29 11:34:23;;;;;;;3.83;2.40;;;21.30;45.90;;;;;;5050951;28;20049;-12
2022/09/29 11:37:26;;;;;;;5.05;2.80;;;21.30;45.90;;;;;;5050836;28;22345;-12
2022/09/29 11:40:03;;;;;;;4.13;2.50;;;21.30;45.90;;;;;;5050782;28;20204;-12
2022/09/29 11:42:42;;;;;;;4.07;2.83;;;21.30;45.80;;;;;;5050837;28;20486;-12
2022/09/29 11:45:14;;;;;;;5.35;2.75;;;21.30;45.80;;;;;;5050975;28;20049;-12
2022/09/29 11:48:09;;;;;;;3.00;2.42;;;21.30;45.80;;;;;;5050959;28;20056;-12
2022/09/29 11:50:53;;;;;;;3.70;2.55;;;21.30;45.80;;;;;;5051008;28;20057;-11
2022/09/29 11:53:47;;;;;;;4.00;2.20;;;21.30;45.80;;;;;;5050723;28;20191;-12
2022/09/29 11:56:31;;;;;;;4.25;2.78;;;21.30;45.80;;;;;;5050504;28;20064;-12
2022/09/29 11:59:06;;;;;;;4.45;2.83;;;21.30;45.80;;;;;;5050779;28;20097;-12
2022/09/29 12:01:51;;;;;;;3.85;3.00;;;21.30;45.90;;;;;;5050929;28;20056;-11
2022/09/29 12:04:31;;;;;;;3.03;2.60;;;21.20;45.90;;;;;;5050713;28;20056;-11
2022/09/29 12:07:36;;;;;;;4.07;2.42;;;21.20;45.90;;;;;;5050943;28;20060;-11
2022/09/29 12:10:29;;;;;;;3.28;2.45;;;21.20;45.90;;;;;;5058564;28;20053;-11
2022/09/29 12:12:54;;;;;;;2.80;2.42;;;21.20;45.90;;;;;;5050511;28;20045;-11
2022/09/29 12:15:40;;;;;;;3.90;3.15;;;21.20;45.90;;;;;;5050376;28;20052;-11
2022/09/29 12:18:33;;;;;;;3.53;2.72;;;21.30;46.00;;;;;;5050837;28;20049;-11
2022/09/29 12:21:01;;;;;;;4.93;2.63;;;21.20;45.90;;;;;;5047318;28;20050;-11
2022/09/29 12:23:29;;;;;;;5.97;3.05;;;21.20;45.90;;;;;;5032148;28;20053;-11
2022/09/29 12:26:22;;;;;;;6.97;3.10;;;21.20;45.90;;;;;;5050558;28;20053;-11
2022/09/29 12:29:04;;;;;;;3.90;2.70;;;21.20;45.90;;;;;;5050407;28;20053;-11
2022/09/29 12:31:38;;;;;;;4.03;2.83;;;21.20;45.90;;;;;;5050419;28;20049;-11
2022/09/29 12:34:14;;;;;;;3.30;2.63;;;21.20;46.00;;;;;;5050747;28;20509;-11
2022/09/29 12:36:52;;;;;;;6.32;2.70;;;21.20;46.00;;;;;;5050843;28;20462;-11
2022/09/29 12:39:37;;;;;;;4.45;3.03;;;21.20;46.00;;;;;;5050971;28;20053;-11
2022/09/29 12:42:38;;;;;;;5.10;2.58;;;21.20;46.00;;;;;;5050351;28;20418;-11
2022/09/29 12:45:15;;;;;;;3.88;2.53;;;21.10;46.00;;;;;;5050864;28;20076;-11
2022/09/29 12:47:51;;;;;;;4.85;2.72;;;21.20;46.10;;;;;;5050084;28;20510;-11
2022/09/29 12:50:45;;;;;;;4.70;2.50;;;21.10;46.10;;;;;;5050478;28;20508;-11
2022/09/29 12:53:34;;;;;;;3.05;2.45;;;21.10;46.10;;;;;;5057391;28;20048;-11
2022/09/29 12:56:20;;;;;;;3.40;2.67;;;21.10;46.60;;;;;;5049983;28;20041;-11
2022/09/29 12:58:57;;;;;;;5.15;2.92;;;21.10;46.10;;;;;;5049802;28;20076;-11
2022/09/29 13:01:31;;;;;;;3.03;2.60;;;21.10;46.10;;;;;;5050062;28;20041;-12
2022/09/29 13:04:30;;;;;;;4.85;2.40;;;21.10;46.10;;;;;;5049471;28;20053;-11
2022/09/29 13:07:31;;;;;;;3.13;2.53;;;21.10;46.00;;;;;;5050528;28;20064;-11
2022/09/29 13:10:14;;;;;;;2.23;2.03;;;21.20;46.00;;;;;;5016008;28;20049;-11
2022/09/29 13:12:59;;;;;;;3.47;2.50;;;21.20;46.10;;;;;;5050106;28;20056;-13
2022/09/29 13:15:38;;;;;;;3.38;2.65;;;21.20;46.00;;;;;;5047485;28;20041;-13
2022/09/29 13:18:26;;;;;;;3.83;2.83;;;21.20;46.00;;;;;;5047935;28;20089;-13
2022/09/29 13:21:20;;;;;;;5.00;2.90;;;21.20;46.00;;;;;;5048774;28;20550;-12